Time;durP1;ratioP1;P1;durP2;ratioP2;P2;SDS_P1;SDS_P2;PMS_P1;PMS_P2;Temp;Humidity;BMP_temperature;BMP_pressure;BME280_temperature;BME280_humidity;BME280_pressure;Samples;Min_cycle;Max_cycle;Signal;HPM_P1;HPM_P2
2023/10/05 00:01:03;;;;;;;6.28;3.50;;;;;;;9.08;100.00;99286.41;6110678;19;20023;-71
2023/10/05 00:03:06;;;;;;;7.63;3.40;;;;;;;9.10;100.00;99289.63;6109588;19;20011;-71
2023/10/05 00:05:06;;;;;;;6.78;2.80;;;;;;;9.09;100.00;99283.28;6111401;19;20030;-71
2023/10/05 00:07:11;;;;;;;9.65;4.32;;;;;;;9.07;100.00;99290.31;6110621;19;20568;-71
2023/10/05 00:09:15;;;;;;;7.30;3.58;;;;;;;9.08;100.00;99286.41;6110241;19;20410;-71
2023/10/05 00:11:36;;;;;;;11.98;3.67;;;;;;;9.07;100.00;99287.56;6108610;19;20029;-72
2023/10/05 00:13:37;;;;;;;8.63;3.28;;;;;;;9.06;100.00;99295.03;6109926;19;20013;-72
2023/10/05 00:15:37;;;;;;;7.55;3.53;;;;;;;9.08;100.00;99306.53;6103142;19;20010;-71
2023/10/05 00:17:38;;;;;;;9.48;4.03;;;;;;;9.05;100.00;99292.63;6102982;19;20032;-71
2023/10/05 00:19:39;;;;;;;9.25;3.45;;;;;;;9.08;100.00;99306.53;6103706;19;20010;-71
2023/10/05 00:21:51;;;;;;;8.23;3.80;;;;;;;9.10;100.00;99297.91;6103032;19;20401;-71
2023/10/05 00:23:54;;;;;;;9.05;3.25;;;;;;;9.14;100.00;99301.59;6103734;19;20011;-71
2023/10/05 00:25:56;;;;;;;10.02;3.75;;;;;;;9.13;100.00;99294.47;6102656;19;20018;-71
2023/10/05 00:27:56;;;;;;;7.47;3.17;;;;;;;9.12;100.00;99285.38;6103763;19;20002;-71
2023/10/05 00:29:57;;;;;;;7.43;3.58;;;;;;;9.15;100.00;99281.09;6102368;19;20444;-71
2023/10/05 00:31:59;;;;;;;7.32;3.75;;;;;;;9.12;100.00;99268.00;6102410;19;20046;-72
2023/10/05 00:34:02;;;;;;;9.90;3.47;;;;;;;9.12;100.00;99257.78;6104621;19;20017;-71
2023/10/05 00:36:05;;;;;;;8.40;3.85;;;;;;;9.08;100.00;99253.28;6103451;19;20007;-71
2023/10/05 00:38:24;;;;;;;;;;;;;;;9.10;100.00;99262.84;6105222;19;20490;-71
2023/10/05 00:40:33;;;;;;;9.55;3.17;;;;;;;9.14;100.00;99266.50;6102984;19;19918;-71
2023/10/05 00:42:35;;;;;;;10.23;3.78;;;;;;;9.22;100.00;99259.22;6103132;19;20526;-71
2023/10/05 00:44:36;;;;;;;8.13;4.15;;;;;;;9.28;100.00;99266.13;6102887;19;20025;-71
2023/10/05 00:46:38;;;;;;;10.00;4.17;;;;;;;9.41;100.00;99262.16;6103483;19;20737;-71
2023/10/05 00:48:54;;;;;;;9.48;3.70;;;;;;;9.50;100.00;99264.75;6102966;19;20014;-71
2023/10/05 00:50:59;;;;;;;5.80;3.30;;;;;;;9.52;100.00;99248.66;6109636;19;20035;-71
2023/10/05 00:53:00;;;;;;;9.38;3.75;;;;;;;9.61;100.00;99262.31;6111445;19;20354;-71
2023/10/05 00:55:06;;;;;;;8.90;3.67;;;;;;;9.62;100.00;99252.88;6109301;19;20011;-71
2023/10/05 00:57:13;;;;;;;9.68;3.67;;;;;;;9.67;100.00;99258.91;6110312;19;20007;-71
2023/10/05 00:59:20;;;;;;;8.43;3.72;;;;;;;9.68;100.00;99257.78;6109376;19;20010;-71
2023/10/05 01:01:33;;;;;;;9.68;3.30;;;;;;;9.71;100.00;99264.56;6106312;19;20015;-71
2023/10/05 01:03:34;;;;;;;8.50;3.97;;;;;;;9.72;100.00;99266.16;6109396;19;20020;-71
2023/10/05 01:05:36;;;;;;;12.68;4.47;;;;;;;9.76;100.00;99267.88;6109916;19;20340;-71
2023/10/05 01:07:49;;;;;;;8.20;3.33;;;;;;;9.76;100.00;99256.00;6109474;19;20011;-71
2023/10/05 01:10:21;;;;;;;12.23;3.50;;;;;;;9.75;100.00;99262.69;6108016;19;20355;-71
2023/10/05 01:14:23;;;;;;;12.65;4.07;;;;;;;9.77;100.00;99255.66;6109592;19;20018;-71
2023/10/05 01:16:24;;;;;;;9.38;4.00;;;;;;;9.78;100.00;99243.44;6109285;19;20549;-71
2023/10/05 01:18:26;;;;;;;7.50;3.38;;;;;;;9.77;100.00;99241.84;6110419;19;20352;-71
2023/10/05 01:20:28;;;;;;;7.63;3.38;;;;;;;9.76;100.00;99240.25;6109007;19;20007;-71
2023/10/05 01:22:39;;;;;;;8.52;3.78;;;;;;;9.73;100.00;99248.41;6109430;19;20526;-71
2023/10/05 01:24:39;;;;;;;10.63;4.22;;;;;;;9.67;100.00;99252.59;6109926;19;20082;-71
2023/10/05 01:26:41;;;;;;;9.68;3.28;;;;;;;9.64;100.00;99254.13;6109453;19;20255;-71
2023/10/05 01:28:41;;;;;;;8.00;3.55;;;;;;;9.63;100.00;99255.28;6108514;19;20356;-71
2023/10/05 01:30:41;;;;;;;11.13;5.10;;;;;;;9.69;100.00;99255.81;6108336;19;20010;-71
2023/10/05 01:32:42;;;;;;;11.40;3.67;;;;;;;9.67;100.00;99252.59;6108815;19;20035;-71
2023/10/05 01:34:43;;;;;;;8.18;3.40;;;;;;;9.64;100.00;99243.06;6109456;19;20010;-71
2023/10/05 01:36:43;;;;;;;11.85;3.92;;;;;;;9.57;100.00;99238.13;6108810;19;20011;-71
2023/10/05 01:38:45;;;;;;;9.25;3.30;;;;;;;9.52;100.00;99240.38;6109335;19;20010;-71
2023/10/05 01:40:49;;;;;;;7.95;3.30;;;;;;;9.45;100.00;99243.72;6108988;19;20015;-71
2023/10/05 01:42:51;;;;;;;8.02;3.83;;;;;;;9.40;100.00;99245.94;6110794;19;20030;-72
2023/10/05 01:44:52;;;;;;;8.70;3.65;;;;;;;9.32;100.00;99252.41;6109900;19;20531;-71
2023/10/05 01:46:55;;;;;;;8.43;3.50;;;;;;;9.26;100.00;99246.31;6110631;19;20013;-71
2023/10/05 01:48:56;;;;;;;7.68;3.28;;;;;;;9.19;100.00;99238.66;6109902;19;20007;-71
2023/10/05 01:51:05;;;;;;;9.02;3.55;;;;;;;9.16;100.00;99244.06;6109700;19;20030;-71
2023/10/05 01:55:08;;;;;;;9.07;3.95;;;;;;;9.08;100.00;99242.25;6107915;19;19999;-71
2023/10/05 01:57:11;;;;;;;10.10;3.55;;;;;;;9.00;100.00;99241.22;6109608;19;20099;-71
2023/10/05 01:59:12;;;;;;;7.88;3.50;;;;;;;8.98;100.00;99241.56;6110052;19;20435;-72
2023/10/05 02:01:13;;;;;;;8.05;3.35;;;;;;;8.96;100.00;99248.59;6108170;19;20002;-71
2023/10/05 02:03:13;;;;;;;7.90;3.60;;;;;;;8.92;100.00;99239.41;6109196;19;20018;-71
2023/10/05 02:05:14;;;;;;;10.27;3.40;;;;;;;8.85;100.00;99231.72;6109993;19;20513;-71
2023/10/05 02:07:15;;;;;;;8.30;3.30;;;;;;;8.80;100.00;99243.00;6109470;19;20367;-72
2023/10/05 02:09:19;;;;;;;10.40;3.67;;;;;;;8.69;100.00;99241.88;6107627;19;20016;-71
2023/10/05 02:11:24;;;;;;;7.65;3.33;;;;;;;8.62;100.00;99242.47;6107622;19;20007;-71
2023/10/05 02:13:24;;;;;;;7.25;3.58;;;;;;;8.53;100.00;99233.50;6108771;19;20011;-71
2023/10/05 02:15:30;;;;;;;8.00;3.50;;;;;;;8.48;100.00;99236.47;6108743;19;20469;-71
2023/10/05 02:17:31;;;;;;;5.90;2.95;;;;;;;8.42;100.00;99227.63;6109518;19;20361;-71
2023/10/05 02:19:32;;;;;;;7.72;3.63;;;;;;;8.42;100.00;99224.88;6108674;19;20003;-72
2023/10/05 02:21:36;;;;;;;8.63;3.75;;;;;;;8.42;100.00;99221.31;6107440;19;20044;-72
2023/10/05 02:23:44;;;;;;;8.70;3.22;;;;;;;8.43;100.00;99220.97;6108299;19;20360;-71
2023/10/05 02:25:45;;;;;;;10.13;4.20;;;;;;;8.43;100.00;99226.47;6109036;19;20451;-71
2023/10/05 02:27:46;;;;;;;7.50;3.63;;;;;;;8.42;100.00;99230.38;6109033;19;20013;-71
2023/10/05 02:29:47;;;;;;;7.35;3.83;;;;;;;8.43;100.00;99240.25;6107558;19;20007;-71
2023/10/05 02:32:05;;;;;;;16.10;5.32;;;;;;;8.40;100.00;99242.91;6107433;19;20080;-71
2023/10/05 02:34:06;;;;;;;7.60;3.60;;;;;;;8.37;100.00;99238.09;6108143;19;20463;-72
2023/10/05 02:38:11;;;;;;;9.38;3.85;;;;;;;8.32;100.00;99230.03;6106294;19;20002;-72
2023/10/05 02:40:12;;;;;;;7.45;3.67;;;;;;;8.26;100.00;99240.47;6108356;19;20340;-72
2023/10/05 02:42:13;;;;;;;8.32;4.15;;;;;;;8.25;100.00;99235.31;6106978;19;19995;-71
2023/10/05 02:46:24;;;;;;;8.30;3.08;;;;;;;8.30;100.00;99240.59;6108764;19;20006;-71
2023/10/05 02:48:24;;;;;;;7.22;3.35;;;;;;;8.32;100.00;99239.09;6108081;19;20018;-71
2023/10/05 02:50:26;;;;;;;8.68;3.75;;;;;;;8.35;100.00;99232.09;6106731;19;20014;-72
2023/10/05 02:52:31;;;;;;;7.95;4.10;;;;;;;8.36;100.00;99229.03;6107677;19;20892;-71
2023/10/05 02:54:32;;;;;;;7.50;3.85;;;;;;;8.38;100.00;99229.47;6106864;19;20086;-71
2023/10/05 02:56:33;;;;;;;10.25;4.15;;;;;;;8.40;100.00;99224.41;6107856;19;20023;-71
2023/10/05 02:58:34;;;;;;;10.30;4.03;;;;;;;8.43;100.00;99226.47;6107965;19;20701;-71
2023/10/05 03:00:34;;;;;;;10.35;3.90;;;;;;;8.46;100.00;99232.47;6106927;19;20015;-72
2023/10/05 03:02:45;;;;;;;7.70;3.70;;;;;;;8.49;100.00;99227.06;6107556;19;20040;-72
2023/10/05 03:04:49;;;;;;;6.88;3.70;;;;;;;8.47;100.00;99234.06;6107723;19;20729;-71
2023/10/05 03:06:52;;;;;;;9.80;4.07;;;;;;;8.49;100.00;99227.06;6107627;19;20028;-71
2023/10/05 03:08:56;;;;;;;10.13;3.50;;;;;;;8.54;100.00;99237.06;6107517;19;20422;-72
2023/10/05 03:10:59;;;;;;;9.93;4.20;;;;;;;8.61;100.00;99243.59;6106732;19;20006;-71
2023/10/05 03:12:59;;;;;;;9.80;4.45;;;;;;;8.67;100.00;99228.41;6108098;19;20011;-72
2023/10/05 03:15:05;;;;;;;8.50;4.03;;;;;;;8.76;100.00;99224.72;6107548;19;20043;-71
2023/10/05 03:17:12;;;;;;;10.13;3.85;;;;;;;8.92;100.00;99226.41;6107927;19;20353;-72
2023/10/05 03:19:15;;;;;;;10.65;3.90;;;;;;;9.07;100.00;99230.41;6107757;19;20530;-72
2023/10/05 03:21:17;;;;;;;11.13;4.35;;;;;;;9.19;100.00;99221.28;6107102;19;20006;-72
2023/10/05 03:23:18;;;;;;;11.82;4.28;;;;;;;9.34;100.00;99223.28;6107261;19;20013;-72
2023/10/05 03:25:19;;;;;;;12.60;4.03;;;;;;;9.52;100.00;99215.50;6105574;19;20007;-71
2023/10/05 03:27:22;;;;;;;9.95;3.60;;;;;;;9.63;100.00;99219.34;6107768;19;20370;-72
2023/10/05 03:29:23;;;;;;;7.72;3.83;;;;;;;9.68;100.00;99219.09;6106785;19;20017;-72
2023/10/05 03:31:30;;;;;;;11.15;4.40;;;;;;;9.74;100.00;99219.63;6106441;19;20474;-72
2023/10/05 03:33:33;;;;;;;9.50;3.92;;;;;;;9.78;100.00;99221.34;6106577;19;20026;-71
2023/10/05 03:35:33;;;;;;;6.47;3.38;;;;;;;9.81;100.00;99220.63;6107064;19;20024;-72
2023/10/05 03:37:34;;;;;;;8.35;3.83;;;;;;;9.84;100.00;99217.13;6106560;19;20486;-71
2023/10/05 03:41:53;;;;;;;7.90;3.20;;;;;;;9.94;100.00;99217.81;6105543;19;20011;-71
2023/10/05 03:43:55;;;;;;;6.97;3.13;;;;;;;10.00;100.00;99210.81;6106472;19;20119;-71
2023/10/05 03:45:56;;;;;;;8.25;3.78;;;;;;;10.05;100.00;99216.91;6106469;19;20003;-72
2023/10/05 03:47:56;;;;;;;9.35;4.20;;;;;;;10.08;100.00;99216.19;6106873;19;20039;-72
2023/10/05 03:49:57;;;;;;;10.65;4.15;;;;;;;10.10;100.00;99208.34;6094949;19;20308;-72
2023/10/05 03:51:58;;;;;;;8.25;4.07;;;;;;;10.12;100.00;99207.97;6111455;19;20003;-71
2023/10/05 03:53:59;;;;;;;7.07;2.97;;;;;;;10.16;100.00;99213.59;6111422;19;20034;-72
2023/10/05 03:55:59;;;;;;;7.35;3.42;;;;;;;10.17;100.00;99217.97;6109466;19;20416;-71
2023/10/05 03:58:00;;;;;;;10.35;3.45;;;;;;;10.13;100.00;99209.59;6111724;19;20003;-72
2023/10/05 04:02:22;;;;;;;9.73;4.20;;;;;;;10.22;100.00;99212.16;6007449;19;2006064;-72
2023/10/05 04:04:22;;;;;;;8.43;3.78;;;;;;;10.26;100.00;99207.53;6111704;19;20010;-72
2023/10/05 04:06:28;;;;;;;9.32;3.67;;;;;;;10.26;100.00;99207.53;6112525;19;20889;-72
2023/10/05 04:08:28;;;;;;;12.18;4.72;;;;;;;10.28;100.00;99202.47;6109279;19;20446;-71
2023/10/05 04:10:46;;;;;;;10.82;3.63;;;;;;;10.27;100.00;99209.97;6110710;19;20010;-72
2023/10/05 04:12:46;;;;;;;9.65;3.65;;;;;;;10.26;100.00;99208.38;6111820;19;20009;-71
2023/10/05 04:14:46;;;;;;;9.18;3.83;;;;;;;10.26;100.00;99205.59;6112021;19;20553;-72
2023/10/05 04:16:48;;;;;;;10.95;3.47;;;;;;;10.27;100.00;99203.66;6109748;19;20533;-72
2023/10/05 04:18:59;;;;;;;11.73;4.28;;;;;;;10.24;100.00;99201.56;6111907;19;20014;-72
2023/10/05 04:20:59;;;;;;;10.13;4.20;;;;;;;10.28;100.00;99200.50;6110410;19;20475;-72
2023/10/05 04:22:59;;;;;;;8.35;3.35;;;;;;;10.32;100.00;99187.56;6112272;19;20019;-71
2023/10/05 04:25:00;;;;;;;10.32;3.60;;;;;;;10.31;100.00;99196.22;6111965;19;20054;-71
2023/10/05 04:27:00;;;;;;;7.40;3.60;;;;;;;10.38;100.00;99194.44;6109637;19;20010;-72
2023/10/05 04:29:04;;;;;;;10.35;3.83;;;;;;;10.38;100.00;99199.97;6111298;19;20010;-71
2023/10/05 04:31:14;;;;;;;7.07;3.45;;;;;;;10.36;100.00;99193.19;6110035;19;20002;-72
2023/10/05 04:33:14;;;;;;;9.10;3.80;;;;;;;10.43;100.00;99193.38;6110281;19;19998;-72
2023/10/05 04:35:49;;;;;;;8.82;3.33;;;;;;;10.47;100.00;99188.69;6111577;19;20006;-72
2023/10/05 04:37:43;;;;;;;9.63;4.00;;;;;;;10.51;100.00;99192.38;6110086;19;20007;-71
2023/10/05 04:39:44;;;;;;;8.23;3.95;;;;;;;10.50;100.00;99190.72;6110829;19;20029;-71
2023/10/05 04:41:49;;;;;;;8.90;4.05;;;;;;;10.49;100.00;99194.66;6104842;19;20674;-72
2023/10/05 04:43:50;;;;;;;10.88;4.07;;;;;;;10.49;100.00;99191.91;6108707;19;20018;-71
2023/10/05 04:45:51;;;;;;;11.52;3.90;;;;;;;10.43;100.00;99185.06;6110470;19;20013;-72
2023/10/05 04:47:58;;;;;;;9.43;3.70;;;;;;;10.45;100.00;99182.72;6109870;19;20049;-71
2023/10/05 04:49:58;;;;;;;10.98;3.60;;;;;;;10.45;100.00;99177.19;6104302;19;20086;-71
2023/10/05 04:52:00;;;;;;;6.18;3.38;;;;;;;10.46;100.00;99169.69;6102130;19;20027;-72
2023/10/05 04:54:01;;;;;;;9.88;3.92;;;;;;;10.44;100.00;99164.53;6102262;19;20306;-72
2023/10/05 04:56:14;;;;;;;9.18;3.70;;;;;;;10.46;100.00;99161.41;6102121;19;20243;-71
2023/10/05 04:58:21;;;;;;;9.32;3.85;;;;;;;10.53;100.00;99167.91;6102624;19;20032;-71
2023/10/05 05:02:58;;;;;;;8.80;3.85;;;;;;;10.55;100.00;99157.25;6102685;19;20010;-72
2023/10/05 05:05:21;;;;;;;5.97;2.83;;;;;;;10.53;100.00;99167.09;6103349;19;20049;-72
2023/10/05 05:07:19;;;;;;;7.03;3.15;;;;;;;10.49;100.00;99167.00;6102561;19;19998;-72
2023/10/05 05:09:21;;;;;;;13.15;5.38;;;;;;;10.50;100.00;99156.72;6102045;19;20553;-72
2023/10/05 05:11:21;;;;;;;8.90;3.83;;;;;;;10.46;100.00;99150.34;6102127;19;20006;-72
2023/10/05 05:13:22;;;;;;;11.35;3.83;;;;;;;10.49;100.00;99164.22;6102843;19;20107;-72
2023/10/05 05:15:22;;;;;;;11.15;3.50;;;;;;;10.48;100.00;99159.88;6103494;19;20010;-72
2023/10/05 05:17:23;;;;;;;8.75;3.50;;;;;;;10.48;100.00;99148.78;6102988;19;20454;-72
2023/10/05 05:19:23;;;;;;;9.88;3.63;;;;;;;10.45;100.00;99154.25;6102947;19;20026;-72
2023/10/05 05:21:23;;;;;;;11.30;3.63;;;;;;;10.50;100.00;99157.53;6102519;19;20003;-72
2023/10/05 05:23:24;;;;;;;7.15;3.10;;;;;;;10.54;100.00;99152.91;6102128;19;20030;-72
2023/10/05 05:25:24;;;;;;;10.43;3.53;;;;;;;10.59;100.00;99158.16;6102985;19;20023;-71
2023/10/05 05:27:24;;;;;;;6.88;2.78;;;;;;;10.55;100.00;99148.16;6103547;19;20006;-72
2023/10/05 05:29:25;;;;;;;8.82;3.10;;;;;;;10.51;100.00;99150.03;6102017;19;20003;-71
2023/10/05 05:31:25;;;;;;;6.68;3.42;;;;;;;10.58;100.00;99152.97;6101877;19;20368;-72
2023/10/05 05:33:25;;;;;;;8.95;3.10;;;;;;;10.56;100.00;99155.28;6103254;19;20005;-72
2023/10/05 05:35:29;;;;;;;11.45;4.18;;;;;;;10.57;100.00;99145.81;6102864;19;20010;-72
2023/10/05 05:37:29;;;;;;;11.20;3.45;;;;;;;10.64;100.00;99152.31;6103014;19;20238;-71
2023/10/05 05:39:38;;;;;;;14.90;3.70;;;;;;;10.59;100.00;99152.63;6102380;19;20006;-71
2023/10/05 05:41:40;;;;;;;9.07;3.42;;;;;;;10.59;100.00;99154.56;6100870;19;21083;-72
2023/10/05 05:43:40;;;;;;;8.43;3.90;;;;;;;10.59;100.00;99157.31;6102723;19;20017;-71
2023/10/05 05:45:43;;;;;;;7.65;2.88;;;;;;;10.58;100.00;99150.19;6101114;19;20014;-72
2023/10/05 05:47:45;;;;;;;10.27;3.05;;;;;;;10.56;100.00;99147.78;6101796;19;20422;-72
2023/10/05 05:49:46;;;;;;;7.32;2.88;;;;;;;10.60;100.00;99140.38;6102605;19;20010;-71
2023/10/05 05:51:47;;;;;;;5.50;2.58;;;;;;;10.61;100.00;99146.72;6107880;19;20041;-72
2023/10/05 05:53:48;;;;;;;12.60;3.67;;;;;;;10.63;100.00;99156.25;6108669;19;20007;-72
2023/10/05 05:55:53;;;;;;;6.43;3.30;;;;;;;10.60;100.00;99159.75;6105838;19;20031;-72
2023/10/05 05:57:55;;;;;;;5.97;2.63;;;;;;;10.58;100.00;99159.28;6108357;19;20364;-72
2023/10/05 05:59:55;;;;;;;7.90;3.75;;;;;;;10.60;100.00;99156.19;6107585;19;20007;-72
2023/10/05 06:01:56;;;;;;;9.45;3.30;;;;;;;10.61;100.00;99161.34;6107653;19;20036;-71
2023/10/05 06:03:56;;;;;;;6.45;3.13;;;;;;;10.64;100.00;99163.41;6107673;19;20336;-72
2023/10/05 06:05:56;;;;;;;7.53;3.45;;;;;;;10.69;100.00;99173.38;6106379;19;20038;-72
2023/10/05 06:08:00;;;;;;;7.90;3.00;;;;;;;10.66;100.00;99182.41;6109324;19;20002;-72
2023/10/05 06:10:01;;;;;;;6.13;3.08;;;;;;;10.67;100.00;99175.69;6107885;19;20011;-72
2023/10/05 06:12:02;;;;;;;5.57;2.55;;;;;;;10.66;100.00;99174.91;6106438;19;20022;-72
2023/10/05 06:14:04;;;;;;;6.32;2.90;;;;;;;10.64;100.00;99193.84;6107398;19;20351;-72
2023/10/05 06:16:06;;;;;;;7.68;2.97;;;;;;;10.65;100.00;99183.56;6108513;19;20003;-72
2023/10/05 06:18:07;;;;;;;9.77;3.30;;;;;;;10.69;100.00;99187.22;6109630;19;20011;-72
2023/10/05 06:20:14;;;;;;;7.55;2.88;;;;;;;10.77;100.00;99186.22;6107995;19;19995;-72
2023/10/05 06:22:14;;;;;;;6.47;2.92;;;;;;;10.75;100.00;99182.19;6108322;19;20070;-72
2023/10/05 06:24:15;;;;;;;8.05;3.20;;;;;;;10.74;100.00;99186.13;6107623;19;20016;-71
2023/10/05 06:26:15;;;;;;;5.90;3.08;;;;;;;10.73;100.00;99182.56;6108700;19;20006;-72
2023/10/05 06:28:17;;;;;;;5.90;3.25;;;;;;;10.72;100.00;99192.03;6108487;19;20478;-72
2023/10/05 06:30:17;;;;;;;6.47;2.90;;;;;;;10.72;100.00;99202.31;6107540;19;20002;-72
2023/10/05 06:32:18;;;;;;;7.78;3.00;;;;;;;10.75;100.00;99196.84;6106945;19;22431;-72
2023/10/05 06:34:18;;;;;;;7.57;3.13;;;;;;;10.79;100.00;99196.94;6106964;19;20018;-72
2023/10/05 06:36:19;;;;;;;6.15;2.92;;;;;;;10.83;100.00;99200.56;6107764;19;20447;-72
2023/10/05 06:38:19;;;;;;;6.32;2.70;;;;;;;10.81;100.00;99208.44;6107812;19;20459;-72
2023/10/05 06:40:22;;;;;;;7.88;2.53;;;;;;;10.82;100.00;99204.50;6108616;19;20021;-72
2023/10/05 06:42:22;;;;;;;11.27;3.53;;;;;;;10.82;100.00;99198.97;6107420;19;20018;-72
2023/10/05 06:44:23;;;;;;;7.05;2.70;;;;;;;10.83;100.00;99209.66;6107894;19;20003;-72
2023/10/05 06:46:26;;;;;;;5.10;2.55;;;;;;;10.90;100.00;99220.09;6108335;19;20010;-72
2023/10/05 06:48:26;;;;;;;6.97;3.25;;;;;;;10.94;100.00;99219.03;6108755;19;20028;-72
2023/10/05 06:50:27;;;;;;;5.57;2.85;;;;;;;10.94;100.00;99212.69;6107573;19;20014;-72
2023/10/05 06:52:27;;;;;;;8.65;2.63;;;;;;;10.97;100.00;99220.25;6106520;19;20003;-72
2023/10/05 06:54:28;;;;;;;5.30;2.88;;;;;;;11.02;100.00;99216.41;6107448;19;20023;-71
2023/10/05 06:56:28;;;;;;;6.30;2.63;;;;;;;11.01;100.00;99215.63;6106324;19;20081;-72
2023/10/05 06:58:28;;;;;;;7.57;3.10;;;;;;;11.01;100.00;99218.38;6107308;19;20003;-72
2023/10/05 07:00:29;;;;;;;7.70;3.22;;;;;;;11.01;100.00;99223.91;6106873;19;20018;-72
2023/10/05 07:02:30;;;;;;;5.88;2.70;;;;;;;11.03;100.00;99213.28;6107963;19;20066;-71
2023/10/05 07:04:30;;;;;;;8.85;3.38;;;;;;;11.05;100.00;99216.47;6107567;19;20557;-72
2023/10/05 07:06:32;;;;;;;6.13;2.67;;;;;;;11.07;100.00;99222.44;6108550;19;20317;-72
2023/10/05 07:08:33;;;;;;;5.40;2.70;;;;;;;11.22;100.00;99223.56;6108105;19;20014;-71
2023/10/05 07:10:33;;;;;;;6.47;2.72;;;;;;;11.24;100.00;99223.97;6106620;19;20018;-72
2023/10/05 07:12:38;;;;;;;6.10;2.85;;;;;;;11.23;100.00;99214.88;6106800;19;20023;-72
2023/10/05 07:14:40;;;;;;;5.68;2.90;;;;;;;11.26;100.00;99221.69;6108602;19;20093;-72
2023/10/05 07:16:40;;;;;;;6.40;2.63;;;;;;;11.28;100.00;99210.22;6107837;19;20517;-71
2023/10/05 07:18:41;;;;;;;5.57;2.65;;;;;;;11.29;100.00;99214.59;6107285;19;20007;-72
2023/10/05 07:20:41;;;;;;;5.75;2.35;;;;;;;11.34;100.00;99222.63;6106038;19;20002;-72
2023/10/05 07:22:44;;;;;;;10.38;3.88;;;;;;;11.34;100.00;99220.66;6106696;19;20400;-72
2023/10/05 07:24:44;;;;;;;6.40;2.67;;;;;;;11.43;100.00;99220.44;6110931;19;20010;-72
2023/10/05 07:26:44;;;;;;;5.93;2.25;;;;;;;11.46;100.00;99222.47;6112454;19;20009;-72
2023/10/05 07:28:46;;;;;;;5.85;3.38;;;;;;;11.52;100.00;99218.22;6112219;19;20007;-72
2023/10/05 07:30:46;;;;;;;4.53;2.22;;;;;;;11.54;100.00;99216.69;6110534;19;20037;-71
2023/10/05 07:32:46;;;;;;;6.55;2.25;;;;;;;11.64;100.00;99225.56;6113174;19;20006;-72
2023/10/05 07:34:47;;;;;;;6.30;2.20;;;;;;;11.63;100.00;99222.00;6112492;19;20003;-72
2023/10/05 07:36:47;;;;;;;7.85;2.55;;;;;;;11.67;100.00;99231.19;6112255;19;20014;-72
2023/10/05 07:38:47;;;;;;;6.40;2.47;;;;;;;11.72;100.00;99224.53;6112101;19;20006;-72
2023/10/05 07:40:48;;;;;;;4.72;2.50;;;;;;;11.77;100.00;99230.59;6109582;19;20021;-72
2023/10/05 07:42:49;;;;;;;5.72;2.40;;;;;;;11.82;100.00;99221.97;6111700;19;20014;-72
2023/10/05 07:44:50;;;;;;;6.50;2.63;;;;;;;11.91;100.00;99232.84;6112571;19;20002;-72
2023/10/05 07:46:51;;;;;;;9.10;2.30;;;;;;;12.01;100.00;99226.69;6112068;19;20100;-72
2023/10/05 07:48:52;;;;;;;5.80;2.63;;;;;;;12.11;100.00;99228.06;6111683;19;20518;-72
2023/10/05 07:50:52;;;;;;;4.93;1.90;;;;;;;12.15;100.00;99225.31;6109996;19;20006;-72
2023/10/05 07:52:54;;;;;;;4.75;2.33;;;;;;;12.25;100.00;99238.59;6111590;19;20006;-71
2023/10/05 07:54:54;;;;;;;5.57;2.42;;;;;;;12.31;100.00;99235.13;6109536;19;20013;-72
2023/10/05 07:56:55;;;;;;;5.88;2.25;;;;;;;12.41;100.00;99236.47;6110841;19;20467;-72
2023/10/05 07:58:55;;;;;;;6.43;2.40;;;;;;;12.47;100.00;99239.72;6112014;19;20017;-72
2023/10/05 08:00:56;;;;;;;4.53;2.10;;;;;;;12.48;100.00;99233.81;6109846;19;20347;-72
2023/10/05 08:02:57;;;;;;;6.50;2.50;;;;;;;12.59;100.00;99231.22;6111259;19;20468;-72
2023/10/05 08:04:57;;;;;;;6.53;2.33;;;;;;;12.62;100.00;99234.03;6110442;19;20006;-72
2023/10/05 08:06:59;;;;;;;8.50;2.72;;;;;;;12.63;100.00;99238.41;6111286;19;20013;-72
2023/10/05 08:09:00;;;;;;;5.45;2.03;;;;;;;12.67;100.00;99244.03;6111428;19;20027;-72
2023/10/05 08:11:00;;;;;;;4.32;2.10;;;;;;;12.70;100.00;99226.63;6108626;19;20471;-72
2023/10/05 08:13:03;;;;;;;6.05;2.88;;;;;;;12.76;100.00;99236.22;6111102;19;19998;-72
2023/10/05 08:15:05;;;;;;;8.15;2.17;;;;;;;12.80;100.00;99234.28;6111084;19;20014;-72
2023/10/05 08:17:05;;;;;;;6.20;2.40;;;;;;;12.82;100.00;99228.38;6111628;19;20355;-72
2023/10/05 08:19:06;;;;;;;4.55;2.08;;;;;;;12.89;100.00;99240.38;6112346;19;20118;-72
2023/10/05 08:21:07;;;;;;;4.78;1.90;;;;;;;12.98;100.00;99234.53;6110497;19;20469;-72
2023/10/05 08:23:08;;;;;;;5.40;2.63;;;;;;;13.04;100.00;99249.72;6110889;19;20002;-72
2023/10/05 08:25:11;;;;;;;4.07;1.80;;;;;;;13.03;100.00;99256.44;6111791;19;20339;-72
2023/10/05 08:27:14;;;;;;;5.40;2.72;;;;;;;13.07;100.00;99251.72;6111514;19;20007;-72
2023/10/05 08:29:16;;;;;;;5.82;2.00;;;;;;;13.07;100.00;99254.50;6110894;19;20006;-72
2023/10/05 08:31:23;;;;;;;5.97;2.13;;;;;;;13.05;100.00;99258.84;6110758;19;20006;-72
2023/10/05 08:33:26;;;;;;;5.30;2.00;;;;;;;13.06;100.00;99261.25;6110867;19;20026;-72
2023/10/05 08:35:26;;;;;;;6.30;2.35;;;;;;;13.11;100.00;99260.13;6109351;19;20359;-72
2023/10/05 08:37:32;;;;;;;4.95;2.20;;;;;;;13.16;100.00;99260.63;6110958;19;20002;-72
2023/10/05 08:39:35;;;;;;;3.95;2.20;;;;;;;13.20;100.00;99271.78;6109871;19;20013;-72
2023/10/05 08:41:41;;;;;;;5.32;2.70;;;;;;;13.22;100.00;99277.78;6109920;19;20003;-72
2023/10/05 08:43:41;;;;;;;5.85;2.35;;;;;;;13.25;100.00;99267.91;6110770;19;21025;-72
2023/10/05 08:45:51;;;;;;;4.82;2.10;;;;;;;13.34;100.00;99276.75;6111091;19;20006;-72
2023/10/05 08:47:54;;;;;;;8.75;2.55;;;;;;;13.37;100.00;99284.31;6111001;19;20030;-72
2023/10/05 08:49:54;;;;;;;6.47;2.38;;;;;;;13.40;100.00;99276.03;6100605;19;20466;-72
2023/10/05 08:51:56;;;;;;;7.38;2.50;;;;;;;13.53;100.00;99284.94;6108997;19;20007;-72
2023/10/05 08:53:57;;;;;;;8.68;2.72;;;;;;;13.55;100.00;99282.56;6108652;19;20015;-72
2023/10/05 08:55:59;;;;;;;8.25;2.50;;;;;;;13.62;100.00;99274.31;6108503;19;20007;-72
2023/10/05 08:58:03;;;;;;;8.18;2.70;;;;;;;13.65;100.00;99284.69;6109234;19;20017;-72
2023/10/05 09:00:14;;;;;;;5.32;2.60;;;;;;;13.66;100.00;99282.72;6106463;19;20295;-72
2023/10/05 09:02:21;;;;;;;9.48;3.08;;;;;;;13.67;100.00;99281.53;6108698;19;20478;-72
2023/10/05 09:04:29;;;;;;;7.07;2.78;;;;;;;13.74;100.00;99278.84;6110245;19;20033;-72
2023/10/05 09:06:30;;;;;;;8.02;2.53;;;;;;;13.82;100.00;99277.75;6110207;19;20463;-72
2023/10/05 09:08:51;;;;;;;5.20;2.40;;;;;;;13.85;100.00;99287.31;6108890;19;20261;-72
2023/10/05 09:10:52;;;;;;;4.38;2.25;;;;;;;13.82;100.00;99280.53;6108263;19;20070;-72
2023/10/05 09:12:58;;;;;;;3.90;1.95;;;;;;;13.84;100.00;99286.50;6109571;19;20040;-72
2023/10/05 09:15:10;;;;;;;5.97;2.35;;;;;;;13.85;100.00;99284.53;6109581;19;20036;-72
2023/10/05 09:17:11;;;;;;;4.33;1.97;;;;;;;13.86;100.00;99277.78;6109686;19;20486;-72
2023/10/05 09:19:33;;;;;;;6.78;2.95;;;;;;;13.92;100.00;99282.63;6110190;19;20244;-72
2023/10/05 09:23:56;;;;;;;;;;;;;;;13.96;100.00;99291.78;6109071;19;20058;-72
2023/10/05 09:25:57;;;;;;;4.85;2.50;;;;;;;13.96;100.00;99291.78;6109782;19;20568;-72
2023/10/05 09:28:07;;;;;;;8.27;2.20;;;;;;;14.02;100.00;99292.25;6109423;19;20329;-72
2023/10/05 09:30:09;;;;;;;6.82;2.38;;;;;;;14.05;100.00;99300.63;6108173;19;20006;-72
2023/10/05 09:32:23;;;;;;;;;;;;;;;14.13;100.00;99303.50;6109424;19;20006;-72
2023/10/05 09:34:49;;;;;;;3.45;1.88;;;;;;;14.09;100.00;99294.31;6110029;19;19919;-72
2023/10/05 09:36:53;;;;;;;6.47;2.40;;;;;;;14.08;100.00;99298.28;6109388;19;20022;-72
2023/10/05 09:38:59;;;;;;;8.88;2.33;;;;;;;14.06;100.00;99302.22;6109025;19;20006;-72
2023/10/05 09:41:02;;;;;;;4.18;2.67;;;;;;;14.11;100.00;99292.75;6107164;19;20463;-72
2023/10/05 09:43:05;;;;;;;11.15;2.47;;;;;;;14.19;100.00;99291.63;6108412;19;20100;-72
2023/10/05 09:45:12;;;;;;;5.25;2.35;;;;;;;14.21;100.00;99294.03;6109523;19;20014;-72
2023/10/05 09:47:14;;;;;;;7.88;2.22;;;;;;;14.31;100.00;99298.88;6109135;19;20011;-72
2023/10/05 09:49:17;;;;;;;5.78;1.80;;;;;;;14.38;100.00;99285.03;6107056;19;20086;-72
2023/10/05 09:51:19;;;;;;;4.55;2.00;;;;;;;14.53;100.00;99283.22;6101879;19;20335;-72